createdAt,value
2023-07-27T00:01:44.353Z,100032.50
2023-07-27T00:06:50.045Z,100036.38
2023-07-27T00:11:57.293Z,100037.40
2023-07-27T00:17:02.997Z,100041.61
2023-07-27T00:22:09.373Z,100041.62
2023-07-27T00:27:15.324Z,100043.51
2023-07-27T00:32:21.224Z,100045.77
2023-07-27T00:37:26.779Z,100043.55
2023-07-27T00:42:32.336Z,100047.31
2023-07-27T00:47:38.296Z,100050.50
2023-07-27T00:52:45.045Z,100054.73
2023-07-27T00:57:50.779Z,100060.37
2023-07-27T01:02:56.752Z,100073.20
2023-07-27T01:08:02.804Z,100073.69
2023-07-27T01:13:14.083Z,100078.34
2023-07-27T01:18:26.979Z,100079.21
2023-07-27T01:23:59.650Z,100071.14
2023-07-27T01:29:20.724Z,100069.48
2023-07-27T01:34:30.850Z,100058.08
2023-07-27T01:39:41.065Z,100066.17
2023-07-27T01:44:48.839Z,100067.62
2023-07-27T01:49:56.300Z,100067.06
2023-07-27T01:55:03.680Z,100064.88
2023-07-27T02:00:11.292Z,100066.89
2023-07-27T02:05:21.365Z,100067.20
2023-07-27T02:10:28.562Z,100068.29
2023-07-27T02:15:48.572Z,100074.14
2023-07-27T02:20:55.473Z,100064.39
2023-07-27T02:26:01.236Z,100062.32
2023-07-27T02:31:07.150Z,100046.00
2023-07-27T02:36:12.727Z,100039.86
2023-07-27T02:41:19.081Z,100056.20
2023-07-27T02:46:24.960Z,100069.48
2023-07-27T02:51:30.864Z,100070.13
2023-07-27T02:56:37.526Z,100070.52
2023-07-27T03:01:43.212Z,100070.45
2023-07-27T03:06:56.898Z,100075.11
2023-07-27T03:12:03.046Z,100072.27
2023-07-27T03:17:09.591Z,100070.37
2023-07-27T03:22:15.283Z,100080.28
2023-07-27T03:27:21.107Z,100078.73
2023-07-27T03:32:26.721Z,100081.63
2023-07-27T03:37:32.294Z,100084.05
2023-07-27T03:42:37.774Z,100090.45
2023-07-27T03:47:46.329Z,100088.79
2023-07-27T03:52:52.306Z,100095.01
2023-07-27T04:02:41.857Z,100108.80
2023-07-27T04:07:51.041Z,100114.08
2023-07-27T04:13:00.789Z,100107.93
2023-07-27T04:18:07.783Z,100101.58
2023-07-27T04:23:15.739Z,100098.15
2023-07-27T04:28:22.867Z,100099.13
2023-07-27T04:33:30.493Z,100102.54
2023-07-27T04:38:36.615Z,100105.76
2023-07-27T04:43:44.217Z,100104.96
2023-07-27T04:48:50.184Z,100095.33
2023-07-27T04:53:56.221Z,100097.27
2023-07-27T04:59:02.179Z,100095.46
2023-07-27T05:04:08.849Z,100090.06
2023-07-27T05:09:15.547Z,100087.60
2023-07-27T05:14:21.132Z,100091.64
2023-07-27T05:19:26.746Z,100079.58
2023-07-27T05:24:33.683Z,100073.34
2023-07-27T05:29:39.548Z,100070.32
2023-07-27T05:34:45.487Z,100071.39
2023-07-27T05:39:52.094Z,100080.92
2023-07-27T05:44:59.176Z,100077.27
2023-07-27T05:50:06.098Z,100077.10
2023-07-27T05:55:16.799Z,100091.12
2023-07-27T06:00:27.615Z,100097.95
2023-07-27T06:05:46.447Z,100100.13
2023-07-27T06:11:02.790Z,100098.88
2023-07-27T06:16:10.453Z,100109.09
2023-07-27T06:21:16.906Z,100099.89
2023-07-27T06:26:25.259Z,100103.90
2023-07-27T06:31:31.220Z,100101.88
2023-07-27T06:36:44.897Z,100096.44
2023-07-27T06:41:53.052Z,100102.77
2023-07-27T06:47:07.746Z,100104.80
2023-07-27T06:52:14.065Z,100105.03
2023-07-27T06:57:20.432Z,100103.85
2023-07-27T07:02:38.274Z,100107.38
2023-07-27T07:07:53.908Z,100108.10
2023-07-27T07:13:01.535Z,100107.05
2023-07-27T07:18:28.941Z,100111.05
2023-07-27T07:23:34.783Z,100115.70
2023-07-27T07:28:41.227Z,100113.68
2023-07-27T07:33:47.218Z,100115.60
2023-07-27T07:38:53.693Z,100119.21
2023-07-27T07:43:59.388Z,100115.30
2023-07-27T07:49:05.681Z,100113.86
2023-07-27T07:54:11.365Z,100115.94
2023-07-27T07:59:17.193Z,100116.92
2023-07-27T08:04:22.933Z,100114.20
2023-07-27T08:09:29.879Z,100113.86
2023-07-27T08:14:35.842Z,100125.54
2023-07-27T08:19:41.708Z,100118.41
2023-07-27T08:24:47.451Z,100119.80
2023-07-27T08:29:53.430Z,100111.54
2023-07-27T08:34:59.033Z,100110.48
2023-07-27T08:40:10.288Z,100103.95
2023-07-27T08:45:24.386Z,100107.17
2023-07-27T08:50:32.813Z,100105.94
2023-07-27T08:55:42.437Z,100101.41
2023-07-27T09:00:48.356Z,100100.36
2023-07-27T09:06:02.112Z,100104.28
2023-07-27T09:11:10.911Z,100097.28
2023-07-27T09:16:25.407Z,100096.88
2023-07-27T09:21:41.251Z,100097.79
2023-07-27T09:26:50.314Z,100101.09
2023-07-27T09:32:00.113Z,100102.56
2023-07-27T09:37:11.258Z,100108.51
2023-07-27T09:42:20.138Z,100108.19
2023-07-27T09:47:31.704Z,100103.59
2023-07-27T09:52:40.488Z,100099.77
2023-07-27T09:57:47.786Z,100097.73
2023-07-27T10:02:59.607Z,100096.52
2023-07-27T10:08:16.748Z,100097.16
2023-07-27T10:13:42.239Z,100090.88
2023-07-27T10:18:50.493Z,100088.73
2023-07-27T10:23:58.367Z,100077.59
2023-07-27T10:29:15.638Z,100075.62
2023-07-27T10:34:25.684Z,100075.78
2023-07-27T10:39:36.140Z,100069.23
2023-07-27T10:44:46.951Z,100061.50
2023-07-27T10:49:54.267Z,100057.71
2023-07-27T10:55:01.315Z,100060.17
2023-07-27T11:00:10.434Z,100053.51
2023-07-27T11:05:16.426Z,100043.81
2023-07-27T11:10:34.189Z,100041.80
2023-07-27T11:15:40.351Z,100039.67
2023-07-27T11:20:47.789Z,100036.08
2023-07-27T11:25:56.097Z,100028.38
2023-07-27T11:31:08.126Z,100030.98
2023-07-27T11:36:14.080Z,100032.41
2023-07-27T11:46:50.150Z,100021.11
2023-07-27T11:51:59.099Z,100013.06
2023-07-27T11:57:05.854Z,100013.11
2023-07-27T12:02:13.564Z,100011.88
2023-07-27T12:07:26.955Z,100006.20
2023-07-27T12:17:52.814Z,100002.30
2023-07-27T12:23:30.115Z,99996.95
2023-07-27T12:33:33.939Z,99987.80
2023-07-27T12:43:48.113Z,99978.82
2023-07-27T12:48:55.627Z,99975.30
2023-07-27T12:54:05.409Z,99979.27
2023-07-27T12:59:13.009Z,99973.11
2023-07-27T13:04:18.769Z,99978.77
2023-07-27T13:09:24.711Z,99985.06
2023-07-27T13:14:31.380Z,99978.72
2023-07-27T13:19:37.204Z,99976.77
2023-07-27T13:24:42.986Z,99975.79
2023-07-27T13:29:49.327Z,99970.54
2023-07-27T13:34:55.692Z,99964.55
2023-07-27T13:40:02.917Z,99966.02
2023-07-27T13:45:11.099Z,99964.09
2023-07-27T13:50:18.574Z,99955.04
2023-07-27T13:55:24.811Z,99951.56
2023-07-27T14:00:32.644Z,99958.78
2023-07-27T14:05:40.083Z,99953.13
2023-07-27T14:10:46.463Z,99943.81
2023-07-27T14:15:52.906Z,99944.98
2023-07-27T14:20:58.721Z,99939.31
2023-07-27T14:26:05.785Z,99946.76
2023-07-27T14:31:13.855Z,99946.33
2023-07-27T14:36:20.559Z,99943.56
2023-07-27T14:41:27.604Z,99930.85
2023-07-27T14:46:35.483Z,99935.02
2023-07-27T14:51:41.978Z,99936.70
2023-07-27T14:56:49.495Z,99941.66
2023-07-27T15:01:58.723Z,99938.25
2023-07-27T15:07:06.843Z,99936.17
2023-07-27T15:12:16.068Z,99934.92
2023-07-27T15:17:22.362Z,99940.36
2023-07-27T15:22:28.802Z,99931.45
2023-07-27T15:27:35.123Z,99938.12
2023-07-27T15:32:42.281Z,99935.64
2023-07-27T15:37:48.177Z,99932.30
2023-07-27T15:42:54.935Z,99927.95
2023-07-27T15:48:02.584Z,99926.87
2023-07-27T15:53:09.954Z,99922.02
2023-07-27T15:58:16.020Z,99919.45
2023-07-27T16:03:22.337Z,99916.18
2023-07-27T16:08:28.626Z,99914.05
2023-07-27T16:13:34.817Z,99910.34
2023-07-27T16:18:40.539Z,99913.20
2023-07-27T16:23:46.654Z,99913.02
2023-07-27T16:28:52.418Z,99918.98
2023-07-27T16:33:58.268Z,99920.40
2023-07-27T16:39:04.284Z,99920.28
2023-07-27T16:44:10.688Z,99918.66
2023-07-27T16:49:16.650Z,99918.00
2023-07-27T16:54:22.427Z,99921.46
2023-07-27T16:59:28.345Z,99922.73
2023-07-27T17:04:37.781Z,99916.48
2023-07-27T17:14:50.820Z,99918.34
2023-07-27T17:19:57.222Z,99916.09
2023-07-27T17:25:03.316Z,99918.20
2023-07-27T17:30:13.292Z,99919.61
2023-07-27T17:35:19.260Z,99914.33
2023-07-27T17:40:25.491Z,99916.39
2023-07-27T17:45:32.540Z,99916.84
2023-07-27T17:50:38.589Z,99915.63
2023-07-27T17:55:44.054Z,99916.08
2023-07-27T18:00:49.973Z,99915.71
2023-07-27T18:05:57.738Z,99911.14
2023-07-27T18:11:10.141Z,99910.40
2023-07-27T18:16:24.567Z,99907.98
2023-07-27T18:21:30.756Z,99902.92
2023-07-27T18:26:37.891Z,99903.55
2023-07-27T18:31:43.594Z,99909.00
2023-07-27T18:36:51.164Z,99908.33
2023-07-27T18:42:18.307Z,99907.91
2023-07-27T18:47:31.516Z,99908.41
2023-07-27T18:52:39.873Z,99906.41
2023-07-27T18:57:45.683Z,99911.08
2023-07-27T19:02:51.823Z,99909.66
2023-07-27T19:07:57.711Z,99909.91
2023-07-27T19:13:03.682Z,99908.67
2023-07-27T19:18:09.832Z,99911.77
2023-07-27T19:23:19.114Z,99916.23
2023-07-27T19:28:25.853Z,99908.67
2023-07-27T19:33:34.440Z,99910.63
2023-07-27T19:38:44.547Z,99910.13
2023-07-27T19:43:53.253Z,99906.08
2023-07-27T19:48:59.330Z,99905.52
2023-07-27T19:54:05.761Z,99904.91
2023-07-27T19:59:13.055Z,99909.18
2023-07-27T20:04:19.045Z,99910.38
2023-07-27T20:09:25.144Z,99910.03
2023-07-27T20:14:35.479Z,99907.63
2023-07-27T20:19:44.963Z,99901.95
2023-07-27T20:24:53.110Z,99904.52
2023-07-27T20:30:00.721Z,99900.70
2023-07-27T20:35:16.945Z,99900.52
2023-07-27T20:40:27.115Z,99894.38
2023-07-27T20:45:37.786Z,99898.58
2023-07-27T20:50:48.892Z,99892.50
2023-07-27T20:55:57.393Z,99897.73
2023-07-27T21:01:06.397Z,99894.48
2023-07-27T21:06:12.415Z,99897.38
2023-07-27T21:11:20.679Z,99890.05
2023-07-27T21:16:26.921Z,99894.46
2023-07-27T21:21:34.837Z,99892.98
2023-07-27T21:26:42.408Z,99896.58
2023-07-27T21:31:49.111Z,99899.31
2023-07-27T21:36:56.585Z,99898.58
2023-07-27T21:42:02.584Z,99893.77
2023-07-27T21:47:09.764Z,99890.29
2023-07-27T21:52:17.760Z,99886.19
2023-07-27T21:57:24.641Z,99889.52
2023-07-27T22:02:31.787Z,99886.50
2023-07-27T22:07:39.016Z,99882.79
2023-07-27T22:12:50.589Z,99879.59
2023-07-27T22:18:10.299Z,99876.86
2023-07-27T22:23:16.463Z,99879.41
2023-07-27T22:28:22.084Z,99876.45
2023-07-27T22:33:27.975Z,99869.00
2023-07-27T22:38:33.884Z,99859.70
2023-07-27T22:43:39.761Z,99860.39
2023-07-27T22:48:45.577Z,99848.62
2023-07-27T22:53:51.576Z,99848.08
2023-07-27T22:58:57.738Z,99844.25
2023-07-27T23:04:03.429Z,99834.52
2023-07-27T23:09:09.494Z,99833.58
2023-07-27T23:14:15.485Z,99831.52
2023-07-27T23:19:21.556Z,99827.07
2023-07-27T23:24:27.372Z,99820.12
2023-07-27T23:29:32.934Z,99827.10
2023-07-27T23:34:38.617Z,99818.88
2023-07-27T23:39:44.337Z,99817.77
2023-07-27T23:44:50.234Z,99810.44
2023-07-27T23:49:55.956Z,99801.33
2023-07-27T23:55:01.579Z,99797.05
